Terminal Aerodrome Forecast
Issued by NWS Tuscon, AZ

Home | Current Version | Previous Version | Text Only | Print | Product List | Glossary On
Versions: 1 2 3 4 5 6 7 8 9 10 11 12 13
000
FTUS45 KTWC 271100
TAFTUS
TAF
KTUS 271120Z 2712/2812 16009KT P6SM SKC
     FM271400 12012G20KT P6SM SKC
     FM272200 06007KT P6SM SKC
     FM280300 13008KT P6SM SKC=

USA.gov is the U.S. government's official web portal to all federal, state and local government web resources and services.